Archival Weather

Half Moon Bay

Half Moon Bay, California (KHAF)

Report from: Thursday, September 21, 2023 1:55 AM PDT
Current time: Sunday, July 14, 2024 4:47 AM PDT

Current weather – Weather history – Daily summaries
Weather forecast

Temperature15.0°C (59.0°F)
Dew point11.0°C (51.8°F)
Winds 7 kts (3.6 m/s, 8.1 mph) South (170°)
Visibility6 mi. (9.7 km)
Altimeter29.85 in.Hg (1011 mB)
Relative humidity77 %
Density altitude267 ft. (81 m)
Remarks Fully automated report
Automated weather observing station with precipitation discriminator
Flight conditions Visual Meteorological Conditions
Raw dataKHAF 210855Z AUTO 17007KT 6SM HZ 15/11 A2985 RMK AO2
An error has occurred. This application may no longer respond until reloaded. Reload 🗙